Terminal Aerodrome Forecast
Issued by NWS Cleveland, OH

Home | Current Version | Previous Version | Text Only | Print | Product List | Glossary Off
Versions: 1 2 3 4 5 6 7 8 9 10 11 12 13 14 15 16 17 18 19 20 21 22 23 24 25 26 27

751
FTUS41 KCLE 261453 AAB
TAFCLE
TAF AMD
KCLE 261453Z 2615/2718 29012KT 5SM -SHRA SCT015 OVC025
      TEMPO 2616/2619 BKN015 OVC025
     FM262100 27014G24KT P6SM SCT025 OVC060
     FM270100 26010KT P6SM SCT060=

USA.gov is the U.S. government's official web portal to all federal, state and local government web resources and services.